sensor_id;sensor_type;location;lat;lon;timestamp;pressure;altitude;pressure_sealevel;temperature;humidity
50636;BME280;36598;46.054;11.130;2023-03-03T00:00:28;99317.94;;;5.39;74.39
50636;BME280;36598;46.054;11.130;2023-03-03T00:02:54;99314.06;;;5.43;74.71
50636;BME280;36598;46.054;11.130;2023-03-03T00:05:21;99312.47;;;5.05;74.77
50636;BME280;36598;46.054;11.130;2023-03-03T00:07:47;99324.19;;;5.39;74.52
50636;BME280;36598;46.054;11.130;2023-03-03T00:10:13;99322.28;;;5.43;73.88
50636;BME280;36598;46.054;11.130;2023-03-03T00:12:45;99317.63;;;5.47;73.48
50636;BME280;36598;46.054;11.130;2023-03-03T00:15:15;99322.75;;;5.49;73.15
50636;BME280;36598;46.054;11.130;2023-03-03T00:17:41;99317.53;;;5.37;73.13
50636;BME280;36598;46.054;11.130;2023-03-03T00:22:50;99312.91;;;5.07;74.28
50636;BME280;36598;46.054;11.130;2023-03-03T00:25:29;99322.13;;;4.92;74.79
50636;BME280;36598;46.054;11.130;2023-03-03T00:27:55;99316.31;;;5.34;73.75
50636;BME280;36598;46.054;11.130;2023-03-03T00:30:24;99314.31;;;4.94;74.16
50636;BME280;36598;46.054;11.130;2023-03-03T00:32:49;99317.75;;;5.21;73.97
50636;BME280;36598;46.054;11.130;2023-03-03T00:35:38;99325.38;;;5.38;72.79
50636;BME280;36598;46.054;11.130;2023-03-03T00:38:11;99320.78;;;5.12;73.96
50636;BME280;36598;46.054;11.130;2023-03-03T00:40:39;99315.91;;;4.95;74.15
50636;BME280;36598;46.054;11.130;2023-03-03T00:45:45;99312.34;;;5.28;73.15
50636;BME280;36598;46.054;11.130;2023-03-03T00:50:42;99320.16;;;4.89;74.00
50636;BME280;36598;46.054;11.130;2023-03-03T00:53:12;99321.34;;;4.91;74.81
50636;BME280;36598;46.054;11.130;2023-03-03T00:55:38;99322.63;;;5.01;74.08
50636;BME280;36598;46.054;11.130;2023-03-03T00:58:04;99321.28;;;5.21;73.37
50636;BME280;36598;46.054;11.130;2023-03-03T01:00:29;99321.63;;;5.16;72.96
50636;BME280;36598;46.054;11.130;2023-03-03T01:02:55;99327.97;;;5.24;73.44
50636;BME280;36598;46.054;11.130;2023-03-03T01:05:20;99319.97;;;5.08;73.53
50636;BME280;36598;46.054;11.130;2023-03-03T01:07:45;99310.16;;;5.07;73.45
50636;BME280;36598;46.054;11.130;2023-03-03T01:10:11;99317.72;;;5.17;72.93
50636;BME280;36598;46.054;11.130;2023-03-03T01:12:36;99315.25;;;5.09;73.69
50636;BME280;36598;46.054;11.130;2023-03-03T01:15:03;99314.72;;;5.30;72.32
50636;BME280;36598;46.054;11.130;2023-03-03T01:17:29;99314.13;;;5.10;73.14
50636;BME280;36598;46.054;11.130;2023-03-03T01:19:54;99309.72;;;5.05;73.53
50636;BME280;36598;46.054;11.130;2023-03-03T01:22:19;99317.72;;;4.84;74.29
50636;BME280;36598;46.054;11.130;2023-03-03T01:24:44;99313.19;;;4.98;73.61
50636;BME280;36598;46.054;11.130;2023-03-03T01:27:10;99311.25;;;4.99;73.79
50636;BME280;36598;46.054;11.130;2023-03-03T01:29:35;99310.94;;;4.74;74.66
50636;BME280;36598;46.054;11.130;2023-03-03T01:32:00;99310.59;;;4.49;74.80
50636;BME280;36598;46.054;11.130;2023-03-03T01:34:26;99305.97;;;4.83;73.82
50636;BME280;36598;46.054;11.130;2023-03-03T01:36:51;99303.59;;;4.82;73.77
50636;BME280;36598;46.054;11.130;2023-03-03T01:39:16;99299.00;;;4.89;73.39
50636;BME280;36598;46.054;11.130;2023-03-03T01:41:41;99294.09;;;5.09;72.43
50636;BME280;36598;46.054;11.130;2023-03-03T01:44:10;99298.94;;;5.19;72.21
50636;BME280;36598;46.054;11.130;2023-03-03T01:46:39;99292.63;;;5.15;72.27
50636;BME280;36598;46.054;11.130;2023-03-03T01:49:10;99294.13;;;4.75;73.44
50636;BME280;36598;46.054;11.130;2023-03-03T01:51:38;99293.03;;;4.84;73.48
50636;BME280;36598;46.054;11.130;2023-03-03T01:54:10;99297.75;;;4.53;75.23
50636;BME280;36598;46.054;11.130;2023-03-03T01:56:38;99288.09;;;4.63;75.37
50636;BME280;36598;46.054;11.130;2023-03-03T01:59:06;99284.75;;;4.76;74.12
50636;BME280;36598;46.054;11.130;2023-03-03T02:01:33;99288.06;;;4.93;73.63
50636;BME280;36598;46.054;11.130;2023-03-03T02:03:59;99295.78;;;4.84;74.28
50636;BME280;36598;46.054;11.130;2023-03-03T02:06:26;99285.94;;;4.79;73.54
50636;BME280;36598;46.054;11.130;2023-03-03T02:08:54;99289.47;;;4.80;73.92
50636;BME280;36598;46.054;11.130;2023-03-03T02:11:22;99291.94;;;4.88;73.10
50636;BME280;36598;46.054;11.130;2023-03-03T02:13:47;99285.34;;;4.96;72.61
50636;BME280;36598;46.054;11.130;2023-03-03T02:16:13;99283.63;;;4.81;73.02
50636;BME280;36598;46.054;11.130;2023-03-03T02:18:38;99282.91;;;4.88;73.21
50636;BME280;36598;46.054;11.130;2023-03-03T02:21:20;99280.34;;;4.68;73.64
50636;BME280;36598;46.054;11.130;2023-03-03T02:26:30;99279.31;;;4.84;72.79
50636;BME280;36598;46.054;11.130;2023-03-03T02:28:57;99269.38;;;4.68;72.94
50636;BME280;36598;46.054;11.130;2023-03-03T02:31:24;99268.81;;;4.25;75.01
50636;BME280;36598;46.054;11.130;2023-03-03T02:33:50;99254.25;;;4.48;74.71
50636;BME280;36598;46.054;11.130;2023-03-03T02:36:17;99254.28;;;4.51;74.33
50636;BME280;36598;46.054;11.130;2023-03-03T02:41:25;99256.69;;;4.57;74.10
50636;BME280;36598;46.054;11.130;2023-03-03T02:46:21;99264.88;;;4.53;73.88
50636;BME280;36598;46.054;11.130;2023-03-03T02:48:46;99261.00;;;4.54;73.49
50636;BME280;36598;46.054;11.130;2023-03-03T02:51:11;99261.41;;;4.56;74.41
50636;BME280;36598;46.054;11.130;2023-03-03T02:53:37;99259.06;;;4.58;74.01
50636;BME280;36598;46.054;11.130;2023-03-03T02:56:02;99260.38;;;4.68;73.56
50636;BME280;36598;46.054;11.130;2023-03-03T02:58:28;99258.19;;;4.50;74.14
50636;BME280;36598;46.054;11.130;2023-03-03T03:00:54;99256.16;;;4.44;74.58
50636;BME280;36598;46.054;11.130;2023-03-03T03:03:20;99254.38;;;4.59;74.31
50636;BME280;36598;46.054;11.130;2023-03-03T03:05:45;99249.66;;;4.56;73.85
50636;BME280;36598;46.054;11.130;2023-03-03T03:08:10;99255.97;;;4.60;73.48
50636;BME280;36598;46.054;11.130;2023-03-03T03:10:35;99250.75;;;4.51;73.91
50636;BME280;36598;46.054;11.130;2023-03-03T03:13:01;99250.44;;;4.56;73.35
50636;BME280;36598;46.054;11.130;2023-03-03T03:15:26;99250.03;;;4.54;73.77
50636;BME280;36598;46.054;11.130;2023-03-03T03:17:51;99254.75;;;4.57;73.76
50636;BME280;36598;46.054;11.130;2023-03-03T03:20:17;99249.03;;;4.69;72.50
50636;BME280;36598;46.054;11.130;2023-03-03T03:22:42;99252.88;;;4.65;73.02
50636;BME280;36598;46.054;11.130;2023-03-03T03:25:07;99243.44;;;4.59;73.03
50636;BME280;36598;46.054;11.130;2023-03-03T03:27:33;99252.34;;;4.52;72.89
50636;BME280;36598;46.054;11.130;2023-03-03T03:29:58;99251.31;;;4.34;74.19
50636;BME280;36598;46.054;11.130;2023-03-03T03:32:24;99247.69;;;4.26;73.92
50636;BME280;36598;46.054;11.130;2023-03-03T03:34:49;99253.03;;;4.15;74.53
50636;BME280;36598;46.054;11.130;2023-03-03T03:37:14;99245.41;;;4.01;74.89
50636;BME280;36598;46.054;11.130;2023-03-03T03:39:39;99245.13;;;4.10;75.18
50636;BME280;36598;46.054;11.130;2023-03-03T03:42:05;99246.25;;;4.06;74.90
50636;BME280;36598;46.054;11.130;2023-03-03T03:44:30;99245.63;;;4.19;74.76
50636;BME280;36598;46.054;11.130;2023-03-03T03:46:55;99245.31;;;3.94;75.70
50636;BME280;36598;46.054;11.130;2023-03-03T03:49:21;99243.38;;;3.95;75.32
50636;BME280;36598;46.054;11.130;2023-03-03T03:51:46;99236.09;;;3.80;75.57
50636;BME280;36598;46.054;11.130;2023-03-03T03:54:11;99242.38;;;4.10;74.95
50636;BME280;36598;46.054;11.130;2023-03-03T03:56:37;99244.91;;;4.22;74.26
50636;BME280;36598;46.054;11.130;2023-03-03T03:59:02;99246.31;;;4.39;73.31
50636;BME280;36598;46.054;11.130;2023-03-03T04:01:29;99232.56;;;4.36;73.49
50636;BME280;36598;46.054;11.130;2023-03-03T04:03:54;99243.28;;;4.18;73.86
50636;BME280;36598;46.054;11.130;2023-03-03T04:06:19;99241.75;;;4.20;74.05
50636;BME280;36598;46.054;11.130;2023-03-03T04:08:45;99225.91;;;4.37;73.62
50636;BME280;36598;46.054;11.130;2023-03-03T04:11:10;99241.72;;;4.17;73.93
50636;BME280;36598;46.054;11.130;2023-03-03T04:13:35;99238.53;;;4.41;72.61
50636;BME280;36598;46.054;11.130;2023-03-03T04:16:01;99235.53;;;4.23;73.05
50636;BME280;36598;46.054;11.130;2023-03-03T04:18:26;99229.69;;;4.25;73.17
50636;BME280;36598;46.054;11.130;2023-03-03T04:20:52;99239.16;;;4.31;73.02
50636;BME280;36598;46.054;11.130;2023-03-03T04:23:18;99232.38;;;4.21;72.94
50636;BME280;36598;46.054;11.130;2023-03-03T04:25:45;99237.44;;;4.19;73.43
50636;BME280;36598;46.054;11.130;2023-03-03T04:28:10;99234.28;;;4.17;73.48
50636;BME280;36598;46.054;11.130;2023-03-03T04:30:36;99229.78;;;4.32;72.94
50636;BME280;36598;46.054;11.130;2023-03-03T04:33:01;99234.50;;;4.35;72.88
50636;BME280;36598;46.054;11.130;2023-03-03T04:35:26;99230.44;;;4.22;73.12
50636;BME280;36598;46.054;11.130;2023-03-03T04:37:51;99237.03;;;4.17;72.69
50636;BME280;36598;46.054;11.130;2023-03-03T04:40:17;99237.03;;;4.17;73.08
50636;BME280;36598;46.054;11.130;2023-03-03T04:42:42;99232.59;;;4.09;73.01
50636;BME280;36598;46.054;11.130;2023-03-03T04:45:07;99238.25;;;4.20;72.66
50636;BME280;36598;46.054;11.130;2023-03-03T04:47:33;99235.72;;;4.08;72.34
50636;BME280;36598;46.054;11.130;2023-03-03T04:49:58;99234.31;;;3.91;73.08
50636;BME280;36598;46.054;11.130;2023-03-03T04:52:24;99235.81;;;3.88;73.53
50636;BME280;36598;46.054;11.130;2023-03-03T04:54:50;99238.53;;;4.15;72.41
50636;BME280;36598;46.054;11.130;2023-03-03T04:57:15;99232.09;;;4.00;72.68
50636;BME280;36598;46.054;11.130;2023-03-03T04:59:40;99228.41;;;3.89;73.18
50636;BME280;36598;46.054;11.130;2023-03-03T05:02:05;99229.75;;;4.02;72.62
50636;BME280;36598;46.054;11.130;2023-03-03T05:04:31;99237.66;;;3.81;73.54
50636;BME280;36598;46.054;11.130;2023-03-03T05:06:57;99228.00;;;3.87;73.41
50636;BME280;36598;46.054;11.130;2023-03-03T05:09:22;99226.16;;;3.45;74.57
50636;BME280;36598;46.054;11.130;2023-03-03T05:11:47;99229.19;;;3.63;74.17
50636;BME280;36598;46.054;11.130;2023-03-03T05:14:13;99225.47;;;3.74;73.91
50636;BME280;36598;46.054;11.130;2023-03-03T05:16:38;99216.72;;;3.92;72.98
50636;BME280;36598;46.054;11.130;2023-03-03T05:19:03;99227.06;;;4.06;72.55
50636;BME280;36598;46.054;11.130;2023-03-03T05:21:28;99222.94;;;3.89;73.07
50636;BME280;36598;46.054;11.130;2023-03-03T05:23:54;99223.19;;;3.80;73.31
50636;BME280;36598;46.054;11.130;2023-03-03T05:26:19;99225.25;;;3.60;74.13
50636;BME280;36598;46.054;11.130;2023-03-03T05:28:44;99223.31;;;3.38;75.22
50636;BME280;36598;46.054;11.130;2023-03-03T05:31:09;99227.94;;;3.11;76.76
50636;BME280;36598;46.054;11.130;2023-03-03T05:33:35;99220.94;;;3.36;75.48
50636;BME280;36598;46.054;11.130;2023-03-03T05:36:01;99229.81;;;3.30;75.27
50636;BME280;36598;46.054;11.130;2023-03-03T05:38:26;99218.25;;;3.63;74.33
50636;BME280;36598;46.054;11.130;2023-03-03T05:40:51;99220.78;;;3.75;73.61
50636;BME280;36598;46.054;11.130;2023-03-03T05:43:18;99231.91;;;3.89;73.37
50636;BME280;36598;46.054;11.130;2023-03-03T05:45:43;99230.72;;;3.60;74.14
50636;BME280;36598;46.054;11.130;2023-03-03T05:48:09;99235.88;;;3.65;74.89
50636;BME280;36598;46.054;11.130;2023-03-03T05:50:35;99239.78;;;3.64;73.99
50636;BME280;36598;46.054;11.130;2023-03-03T05:53:00;99241.19;;;3.81;73.58
50636;BME280;36598;46.054;11.130;2023-03-03T05:55:25;99231.31;;;3.73;73.71
50636;BME280;36598;46.054;11.130;2023-03-03T05:57:51;99232.72;;;3.63;74.75
50636;BME280;36598;46.054;11.130;2023-03-03T06:00:16;99238.75;;;3.49;75.37
50636;BME280;36598;46.054;11.130;2023-03-03T06:02:42;99242.53;;;3.91;73.26
50636;BME280;36598;46.054;11.130;2023-03-03T06:05:07;99243.31;;;3.91;73.29
50636;BME280;36598;46.054;11.130;2023-03-03T06:07:33;99247.28;;;3.71;74.23
50636;BME280;36598;46.054;11.130;2023-03-03T06:09:59;99250.41;;;3.96;73.25
50636;BME280;36598;46.054;11.130;2023-03-03T06:12:24;99253.41;;;3.61;74.23
50636;BME280;36598;46.054;11.130;2023-03-03T06:14:49;99252.03;;;4.00;72.56
50636;BME280;36598;46.054;11.130;2023-03-03T06:17:14;99250.19;;;4.08;72.62
50636;BME280;36598;46.054;11.130;2023-03-03T06:19:40;99251.78;;;4.39;71.26
50636;BME280;36598;46.054;11.130;2023-03-03T06:22:08;99260.47;;;4.45;70.68
50636;BME280;36598;46.054;11.130;2023-03-03T06:24:34;99252.94;;;4.68;69.73
50636;BME280;36598;46.054;11.130;2023-03-03T06:26:59;99257.44;;;4.87;69.17
50636;BME280;36598;46.054;11.130;2023-03-03T06:29:25;99257.97;;;4.66;69.60
50636;BME280;36598;46.054;11.130;2023-03-03T06:31:50;99255.72;;;4.72;69.38
50636;BME280;36598;46.054;11.130;2023-03-03T06:34:16;99265.50;;;5.07;67.72
50636;BME280;36598;46.054;11.130;2023-03-03T06:36:41;99260.56;;;5.23;67.39
50636;BME280;36598;46.054;11.130;2023-03-03T06:39:06;99267.16;;;5.15;67.96
50636;BME280;36598;46.054;11.130;2023-03-03T06:41:32;99264.47;;;5.22;67.68
50636;BME280;36598;46.054;11.130;2023-03-03T06:43:57;99272.75;;;4.92;68.24
50636;BME280;36598;46.054;11.130;2023-03-03T06:46:24;99279.47;;;5.35;67.04
50636;BME280;36598;46.054;11.130;2023-03-03T06:48:49;99278.78;;;4.71;68.60
50636;BME280;36598;46.054;11.130;2023-03-03T06:51:22;99272.25;;;5.16;67.33
50636;BME280;36598;46.054;11.130;2023-03-03T06:53:49;99276.81;;;5.42;66.70
50636;BME280;36598;46.054;11.130;2023-03-03T06:56:16;99277.75;;;5.16;67.04
50636;BME280;36598;46.054;11.130;2023-03-03T06:58:42;99273.72;;;5.44;66.60
50636;BME280;36598;46.054;11.130;2023-03-03T07:01:11;99276.56;;;5.58;66.24
50636;BME280;36598;46.054;11.130;2023-03-03T07:03:39;99283.72;;;5.73;65.50
50636;BME280;36598;46.054;11.130;2023-03-03T07:06:12;99284.47;;;6.15;64.08
50636;BME280;36598;46.054;11.130;2023-03-03T07:08:37;99281.75;;;6.18;63.81
50636;BME280;36598;46.054;11.130;2023-03-03T07:11:07;99282.63;;;6.37;63.38
50636;BME280;36598;46.054;11.130;2023-03-03T07:13:33;99287.31;;;6.33;63.05
50636;BME280;36598;46.054;11.130;2023-03-03T07:15:59;99287.34;;;6.36;62.94
50636;BME280;36598;46.054;11.130;2023-03-03T07:18:39;99288.66;;;6.60;62.59
50636;BME280;36598;46.054;11.130;2023-03-03T07:23:39;99288.00;;;6.15;63.98
50636;BME280;36598;46.054;11.130;2023-03-03T07:26:09;99296.16;;;6.70;62.60
50636;BME280;36598;46.054;11.130;2023-03-03T07:28:35;99295.69;;;6.58;62.69
50636;BME280;36598;46.054;11.130;2023-03-03T07:31:04;99296.09;;;6.56;62.47
50636;BME280;36598;46.054;11.130;2023-03-03T07:33:42;99295.19;;;6.34;63.04
50636;BME280;36598;46.054;11.130;2023-03-03T07:36:20;99288.25;;;6.58;62.77
50636;BME280;36598;46.054;11.130;2023-03-03T07:38:49;99285.66;;;7.01;62.18
50636;BME280;36598;46.054;11.130;2023-03-03T07:41:17;99284.94;;;11.58;50.10
50636;BME280;36598;46.054;11.130;2023-03-03T07:43:48;99280.72;;;17.73;36.47
50636;BME280;36598;46.054;11.130;2023-03-03T07:48:59;99283.06;;;21.87;28.65
50636;BME280;36598;46.054;11.130;2023-03-03T07:51:26;99280.47;;;24.72;24.66
50636;BME280;36598;46.054;11.130;2023-03-03T07:53:52;99284.88;;;26.02;22.25
50636;BME280;36598;46.054;11.130;2023-03-03T07:56:28;99281.69;;;27.28;20.68
50636;BME280;36598;46.054;11.130;2023-03-03T07:58:54;99285.38;;;26.17;21.25
50636;BME280;36598;46.054;11.130;2023-03-03T08:04:09;99282.00;;;27.24;20.29
50636;BME280;36598;46.054;11.130;2023-03-03T08:06:47;99284.13;;;28.27;18.75
50636;BME280;36598;46.054;11.130;2023-03-03T08:14:30;99287.47;;;29.71;17.59
50636;BME280;36598;46.054;11.130;2023-03-03T08:16:58;99270.50;;;31.06;16.44
50636;BME280;36598;46.054;11.130;2023-03-03T08:19:23;99273.50;;;31.84;15.08
50636;BME280;36598;46.054;11.130;2023-03-03T08:21:48;99278.50;;;29.80;16.82
50636;BME280;36598;46.054;11.130;2023-03-03T08:24:14;99275.44;;;31.05;15.61
50636;BME280;36598;46.054;11.130;2023-03-03T08:26:39;99267.44;;;33.11;14.43
50636;BME280;36598;46.054;11.130;2023-03-03T08:29:04;99264.94;;;32.49;14.71
50636;BME280;36598;46.054;11.130;2023-03-03T08:31:29;99271.84;;;30.91;15.33
50636;BME280;36598;46.054;11.130;2023-03-03T08:33:55;99264.31;;;31.36;15.15
50636;BME280;36598;46.054;11.130;2023-03-03T08:36:20;99261.88;;;32.47;14.12
50636;BME280;36598;46.054;11.130;2023-03-03T08:38:46;99264.59;;;30.90;15.12
50636;BME280;36598;46.054;11.130;2023-03-03T08:41:11;99259.53;;;31.31;15.09
50636;BME280;36598;46.054;11.130;2023-03-03T08:43:37;99258.94;;;32.83;13.88
50636;BME280;36598;46.054;11.130;2023-03-03T08:46:03;99250.50;;;32.70;13.95
50636;BME280;36598;46.054;11.130;2023-03-03T08:48:29;99249.25;;;30.33;15.99
50636;BME280;36598;46.054;11.130;2023-03-03T08:50:54;99255.34;;;27.33;18.21
50636;BME280;36598;46.054;11.130;2023-03-03T08:53:20;99257.44;;;27.27;18.04
50636;BME280;36598;46.054;11.130;2023-03-03T08:55:45;99253.34;;;26.28;19.27
50636;BME280;36598;46.054;11.130;2023-03-03T08:58:12;99252.41;;;27.68;18.03
50636;BME280;36598;46.054;11.130;2023-03-03T09:00:37;99262.91;;;22.76;22.50
50636;BME280;36598;46.054;11.130;2023-03-03T09:03:03;99267.97;;;20.27;25.83
50636;BME280;36598;46.054;11.130;2023-03-03T09:05:31;99268.88;;;18.83;27.73
50636;BME280;36598;46.054;11.130;2023-03-03T09:07:56;99260.94;;;18.35;28.77
50636;BME280;36598;46.054;11.130;2023-03-03T09:10:23;99271.34;;;16.73;31.28
50636;BME280;36598;46.054;11.130;2023-03-03T09:12:53;99275.53;;;15.87;32.92
50636;BME280;36598;46.054;11.130;2023-03-03T09:17:47;99273.78;;;14.13;36.37
50636;BME280;36598;46.054;11.130;2023-03-03T09:22:41;99273.75;;;12.12;40.52
50636;BME280;36598;46.054;11.130;2023-03-03T09:25:51;99270.97;;;12.75;39.44
50636;BME280;36598;46.054;11.130;2023-03-03T09:27:57;99275.44;;;12.06;40.95
50636;BME280;36598;46.054;11.130;2023-03-03T09:32:48;99269.78;;;11.89;42.34
50636;BME280;36598;46.054;11.130;2023-03-03T09:35:46;99271.88;;;12.28;41.57
50636;BME280;36598;46.054;11.130;2023-03-03T09:38:25;99262.38;;;12.06;42.08
50636;BME280;36598;46.054;11.130;2023-03-03T09:56:37;99252.59;;;13.86;39.42
50636;BME280;36598;46.054;11.130;2023-03-03T10:04:21;99246.31;;;14.73;37.17
50636;BME280;36598;46.054;11.130;2023-03-03T10:14:48;99232.94;;;15.73;35.20
50636;BME280;36598;46.054;11.130;2023-03-03T10:20:04;99232.28;;;16.39;34.77
50636;BME280;36598;46.054;11.130;2023-03-03T10:25:11;99218.09;;;20.91;27.26
50636;BME280;36598;46.054;11.130;2023-03-03T10:30:12;99210.34;;;23.31;24.59
50636;BME280;36598;46.054;11.130;2023-03-03T10:32:45;99211.28;;;22.44;24.83
50636;BME280;36598;46.054;11.130;2023-03-03T10:38:00;99211.19;;;24.39;22.56
50636;BME280;36598;46.054;11.130;2023-03-03T10:40:33;99203.13;;;24.15;22.92
50636;BME280;36598;46.054;11.130;2023-03-03T10:50:49;99193.50;;;23.10;23.50
50636;BME280;36598;46.054;11.130;2023-03-03T10:53:20;99193.22;;;23.45;23.55
50636;BME280;36598;46.054;11.130;2023-03-03T11:14:06;99165.59;;;19.66;28.43
50636;BME280;36598;46.054;11.130;2023-03-03T11:16:54;99159.44;;;20.15;27.53
50636;BME280;36598;46.054;11.130;2023-03-03T11:19:29;99163.59;;;19.57;27.61
50636;BME280;36598;46.054;11.130;2023-03-03T11:22:07;99160.03;;;20.19;26.34
50636;BME280;36598;46.054;11.130;2023-03-03T11:34:52;99140.75;;;21.01;25.05
50636;BME280;36598;46.054;11.130;2023-03-03T11:40:26;99119.94;;;21.63;24.89
50636;BME280;36598;46.054;11.130;2023-03-03T11:42:58;99121.69;;;20.46;25.71
50636;BME280;36598;46.054;11.130;2023-03-03T11:46:07;99112.88;;;20.83;25.22
50636;BME280;36598;46.054;11.130;2023-03-03T11:53:33;99091.66;;;21.98;24.73
50636;BME280;36598;46.054;11.130;2023-03-03T11:56:09;99096.06;;;22.05;24.80
50636;BME280;36598;46.054;11.130;2023-03-03T12:01:28;99079.50;;;21.87;25.73
50636;BME280;36598;46.054;11.130;2023-03-03T12:21:36;99063.56;;;18.97;28.86
50636;BME280;36598;46.054;11.130;2023-03-03T12:26:32;99063.97;;;19.05;28.91
50636;BME280;36598;46.054;11.130;2023-03-03T12:31:43;99053.69;;;17.16;30.75
50636;BME280;36598;46.054;11.130;2023-03-03T12:49:20;99044.72;;;15.31;33.97
50636;BME280;36598;46.054;11.130;2023-03-03T13:02:34;99034.00;;;15.64;33.35
50636;BME280;36598;46.054;11.130;2023-03-03T13:05:02;99030.94;;;15.49;32.92
50636;BME280;36598;46.054;11.130;2023-03-03T13:07:42;99031.72;;;15.02;33.81
50636;BME280;36598;46.054;11.130;2023-03-03T13:12:38;99028.16;;;15.01;34.19
50636;BME280;36598;46.054;11.130;2023-03-03T13:15:22;99020.69;;;15.11;34.33
50636;BME280;36598;46.054;11.130;2023-03-03T13:27:55;99023.66;;;14.69;35.67
50636;BME280;36598;46.054;11.130;2023-03-03T13:30:25;99021.19;;;14.71;35.66
50636;BME280;36598;46.054;11.130;2023-03-03T13:32:58;99019.66;;;15.18;34.15
50636;BME280;36598;46.054;11.130;2023-03-03T13:37:54;99020.44;;;14.71;35.26
50636;BME280;36598;46.054;11.130;2023-03-03T13:48:20;99011.75;;;14.56;35.15
50636;BME280;36598;46.054;11.130;2023-03-03T13:53:23;99002.81;;;15.21;34.58
50636;BME280;36598;46.054;11.130;2023-03-03T14:03:25;99005.28;;;15.19;35.20
50636;BME280;36598;46.054;11.130;2023-03-03T14:06:00;99005.63;;;15.43;34.77
50636;BME280;36598;46.054;11.130;2023-03-03T14:11:10;98996.25;;;15.15;35.27
50636;BME280;36598;46.054;11.130;2023-03-03T14:19:56;98996.34;;;15.24;36.03
50636;BME280;36598;46.054;11.130;2023-03-03T14:24:21;98989.19;;;15.23;36.78
50636;BME280;36598;46.054;11.130;2023-03-03T14:26:50;98993.94;;;15.14;37.25
50636;BME280;36598;46.054;11.130;2023-03-03T14:31:44;98992.91;;;14.60;36.94
50636;BME280;36598;46.054;11.130;2023-03-03T14:36:37;98995.34;;;14.84;37.75
50636;BME280;36598;46.054;11.130;2023-03-03T14:39:03;98993.25;;;14.75;37.93
50636;BME280;36598;46.054;11.130;2023-03-03T14:41:48;98995.06;;;14.56;37.59
50636;BME280;36598;46.054;11.130;2023-03-03T14:46:44;98994.47;;;14.36;38.87
50636;BME280;36598;46.054;11.130;2023-03-03T14:49:14;98986.91;;;14.36;38.27
50636;BME280;36598;46.054;11.130;2023-03-03T14:51:42;98987.69;;;14.49;37.33
50636;BME280;36598;46.054;11.130;2023-03-03T14:54:12;98985.91;;;14.56;37.98
50636;BME280;36598;46.054;11.130;2023-03-03T14:56:38;98993.69;;;14.48;38.20
50636;BME280;36598;46.054;11.130;2023-03-03T14:59:19;98988.44;;;14.24;38.29
50636;BME280;36598;46.054;11.130;2023-03-03T15:01:45;98979.53;;;14.29;38.82
50636;BME280;36598;46.054;11.130;2023-03-03T15:06:46;98980.00;;;14.28;37.87
50636;BME280;36598;46.054;11.130;2023-03-03T15:11:49;98982.09;;;14.37;38.04
50636;BME280;36598;46.054;11.130;2023-03-03T15:14:15;98980.97;;;14.34;37.79
50636;BME280;36598;46.054;11.130;2023-03-03T15:16:42;98986.00;;;14.39;38.11
50636;BME280;36598;46.054;11.130;2023-03-03T15:19:26;98981.34;;;14.49;38.73
50636;BME280;36598;46.054;11.130;2023-03-03T15:21:57;98987.09;;;14.42;38.50
50636;BME280;36598;46.054;11.130;2023-03-03T15:24:26;98983.25;;;14.52;38.75
50636;BME280;36598;46.054;11.130;2023-03-03T15:26:53;98986.22;;;14.32;38.82
50636;BME280;36598;46.054;11.130;2023-03-03T15:29:27;98996.13;;;14.20;39.37
50636;BME280;36598;46.054;11.130;2023-03-03T15:42:41;98980.19;;;14.08;38.66
50636;BME280;36598;46.054;11.130;2023-03-03T15:52:58;99004.44;;;13.95;40.21
50636;BME280;36598;46.054;11.130;2023-03-03T16:00:52;98996.38;;;13.71;40.79
50636;BME280;36598;46.054;11.130;2023-03-03T16:03:42;98999.28;;;13.81;41.05
50636;BME280;36598;46.054;11.130;2023-03-03T16:06:14;98993.84;;;13.77;40.55
50636;BME280;36598;46.054;11.130;2023-03-03T16:11:07;98995.16;;;12.98;42.41
50636;BME280;36598;46.054;11.130;2023-03-03T16:34:09;99020.59;;;12.64;43.22
50636;BME280;36598;46.054;11.130;2023-03-03T16:39:03;99023.66;;;12.33;44.15
50636;BME280;36598;46.054;11.130;2023-03-03T16:49:00;99040.00;;;12.11;45.23
50636;BME280;36598;46.054;11.130;2023-03-03T16:54:06;99054.03;;;12.04;45.76
50636;BME280;36598;46.054;11.130;2023-03-03T16:56:42;99060.34;;;11.85;46.51
50636;BME280;36598;46.054;11.130;2023-03-03T17:20:14;99103.25;;;11.76;47.56
50636;BME280;36598;46.054;11.130;2023-03-03T17:25:44;99100.66;;;11.89;47.34
50636;BME280;36598;46.054;11.130;2023-03-03T17:33:33;99105.03;;;11.67;47.58
50636;BME280;36598;46.054;11.130;2023-03-03T17:46:34;99113.31;;;11.23;49.39
50636;BME280;36598;46.054;11.130;2023-03-03T18:17:42;99165.88;;;11.00;51.44
50636;BME280;36598;46.054;11.130;2023-03-03T18:22:53;99166.34;;;10.95;51.57
50636;BME280;36598;46.054;11.130;2023-03-03T18:28:35;99177.84;;;10.66;52.37
50636;BME280;36598;46.054;11.130;2023-03-03T18:33:16;99185.94;;;10.50;53.20
50636;BME280;36598;46.054;11.130;2023-03-03T18:36:06;99190.09;;;10.65;52.83
50636;BME280;36598;46.054;11.130;2023-03-03T18:38:33;99193.56;;;10.73;52.60
50636;BME280;36598;46.054;11.130;2023-03-03T18:41:10;99198.25;;;10.45;53.55
50636;BME280;36598;46.054;11.130;2023-03-03T18:46:01;99208.81;;;10.54;53.13
50636;BME280;36598;46.054;11.130;2023-03-03T18:49:12;99214.16;;;10.68;52.94
50636;BME280;36598;46.054;11.130;2023-03-03T18:51:20;99215.41;;;10.64;53.13
50636;BME280;36598;46.054;11.130;2023-03-03T18:54:04;99212.38;;;10.17;54.04
50636;BME280;36598;46.054;11.130;2023-03-03T18:56:41;99213.09;;;10.28;53.84
50636;BME280;36598;46.054;11.130;2023-03-03T18:59:07;99216.09;;;10.41;53.96
50636;BME280;36598;46.054;11.130;2023-03-03T19:01:41;99219.44;;;10.25;54.18
50636;BME280;36598;46.054;11.130;2023-03-03T19:09:08;99235.16;;;10.32;54.10
50636;BME280;36598;46.054;11.130;2023-03-03T19:16:51;99232.25;;;10.46;53.71